Time;durP1;ratioP1;P1;durP2;ratioP2;P2;SDS_P1;SDS_P2;PMS_P1;PMS_P2;Temp;Humidity;BMP_temperature;BMP_pressure;BME280_temperature;BME280_humidity;BME280_pressure;Samples;Min_cycle;Max_cycle;Signal;HPM_P1;HPM_P2
2024/01/08 00:01:16;;;;;;;0.60;0.60;;;;;;;-3.79;100.00;102888.81;5093626;28;20027;-57
2024/01/08 00:03:41;;;;;;;0.52;0.52;;;;;;;-3.79;100.00;102893.84;5094393;28;20020;-57
2024/01/08 00:06:06;;;;;;;0.60;0.60;;;;;;;-3.79;100.00;102882.88;5093467;28;20047;-58
2024/01/08 00:08:32;;;;;;;0.50;0.50;;;;;;;-3.79;100.00;102881.25;5092625;28;20471;-57
2024/01/08 00:10:57;;;;;;;0.50;0.50;;;;;;;-3.80;100.00;102879.44;5093963;28;20352;-57
2024/01/08 00:13:23;;;;;;;0.60;0.60;;;;;;;-3.79;100.00;102878.75;5093227;28;20371;-57
2024/01/08 00:15:48;;;;;;;0.68;0.68;;;;;;;-3.77;100.00;102882.34;5093535;28;20078;-57
2024/01/08 00:18:13;;;;;;;0.60;0.60;;;;;;;-3.78;100.00;102879.63;5093487;28;20027;-57
2024/01/08 00:20:39;;;;;;;0.50;0.50;;;;;;;-3.78;100.00;102883.06;5092975;28;20035;-57
2024/01/08 00:23:04;;;;;;;0.60;0.60;;;;;;;-3.76;100.00;102889.16;5093755;28;20424;-57
2024/01/08 00:25:29;;;;;;;0.50;0.50;;;;;;;-3.74;100.00;102890.25;5093391;28;20032;-57
2024/01/08 00:27:55;;;;;;;0.57;0.57;;;;;;;-3.75;100.00;102885.94;5092602;28;20543;-57
2024/01/08 00:30:20;;;;;;;0.65;0.65;;;;;;;-3.75;100.00;102888.47;5093103;28;20032;-57
2024/01/08 00:32:46;;;;;;;0.60;0.60;;;;;;;-3.74;100.00;102890.25;5093039;28;20111;-57
2024/01/08 00:35:11;;;;;;;0.57;0.57;;;;;;;-3.74;100.00;102885.22;5092841;28;20047;-57
2024/01/08 00:37:38;;;;;;;0.50;0.50;;;;;;;-3.74;100.00;102895.31;5093610;28;20052;-57
2024/01/08 00:40:05;;;;;;;0.60;0.60;;;;;;;-3.74;100.00;102892.78;5093068;28;20024;-57
2024/01/08 00:42:31;;;;;;;0.70;0.70;;;;;;;-3.72;100.00;102893.88;5092657;28;20052;-58
2024/01/08 00:44:56;;;;;;;0.60;0.60;;;;;;;-3.71;100.00;102890.63;5093419;28;20507;-58
2024/01/08 00:47:21;;;;;;;0.60;0.60;;;;;;;-3.69;100.00;102890.84;5092767;28;20032;-57
2024/01/08 00:49:47;;;;;;;0.60;0.60;;;;;;;-3.69;100.00;102888.31;5093223;28;20016;-57
2024/01/08 00:52:12;;;;;;;0.60;0.60;;;;;;;-3.70;100.00;102883.97;5093251;28;20373;-57
2024/01/08 00:54:37;;;;;;;0.50;0.50;;;;;;;-3.70;100.00;102889.03;5092126;28;20028;-57
2024/01/08 00:57:03;;;;;;;0.60;0.60;;;;;;;-3.60;100.00;102891.00;5092676;28;20384;-57
2024/01/08 00:59:28;;;;;;;0.77;0.77;;;;;;;-3.68;100.00;102885.06;5093042;28;20027;-57
2024/01/08 01:01:53;;;;;;;0.60;0.60;;;;;;;-3.68;100.00;102882.53;5092593;28;20024;-57
2024/01/08 01:04:19;;;;;;;0.70;0.70;;;;;;;-3.68;100.00;102891.00;5092524;28;20063;-57
2024/01/08 01:06:44;;;;;;;0.60;0.60;;;;;;;-3.67;100.00;102890.31;5093307;28;20027;-57
2024/01/08 01:09:09;;;;;;;0.60;0.60;;;;;;;-3.66;100.00;102889.56;5092499;28;20115;-57
2024/01/08 01:11:35;;;;;;;0.60;0.60;;;;;;;-3.66;100.00;102892.06;5092924;28;20464;-57
2024/01/08 01:14:00;;;;;;;0.60;0.60;;;;;;;-3.67;100.00;102890.31;5092874;28;20390;-57
2024/01/08 01:16:29;;;;;;;0.60;0.60;;;;;;;-3.70;100.00;102899.09;5092130;28;20024;-57
2024/01/08 01:18:56;;;;;;;0.60;0.60;;;;;;;-3.72;100.00;102900.53;5092681;28;20028;-57
2024/01/08 01:21:22;;;;;;;0.68;0.68;;;;;;;-3.73;100.00;102897.13;5092872;28;20035;-57
2024/01/08 01:23:48;;;;;;;0.60;0.60;;;;;;;-3.73;100.00;102894.59;5092344;28;20059;-57
2024/01/08 01:26:14;;;;;;;0.60;0.60;;;;;;;-3.73;100.00;102904.69;5092333;28;20052;-57
2024/01/08 01:28:40;;;;;;;0.57;0.57;;;;;;;-3.71;100.00;102898.19;5093072;28;20052;-57
2024/01/08 01:31:05;;;;;;;0.60;0.60;;;;;;;-3.74;100.00;102892.78;5092396;28;20059;-57
2024/01/08 01:33:31;;;;;;;0.70;0.70;;;;;;;-3.74;100.00;102892.78;5093715;28;20078;-57
2024/01/08 01:35:56;;;;;;;0.60;0.60;;;;;;;-3.78;100.00;102900.69;5096303;28;20397;-57
2024/01/08 01:38:22;;;;;;;0.70;0.70;;;;;;;-3.84;100.00;102899.97;5096284;28;20035;-57
2024/01/08 01:40:47;;;;;;;0.50;0.50;;;;;;;-3.94;100.00;102894.53;5097069;28;20428;-56
2024/01/08 01:43:27;;;;;;;0.50;0.50;;;;;;;-4.00;100.00;102897.22;5096117;28;20024;-56
2024/01/08 01:45:54;;;;;;;0.50;0.50;;;;;;;-4.09;100.00;102897.00;5096567;28;20533;-57
2024/01/08 01:48:21;;;;;;;0.68;0.68;;;;;;;-4.11;100.00;102900.03;5096663;28;20085;-57
2024/01/08 01:50:47;;;;;;;0.70;0.70;;;;;;;-4.14;100.00;102895.53;5096412;28;20024;-56
2024/01/08 01:53:13;;;;;;;0.52;0.52;;;;;;;-4.18;100.00;102895.88;5096153;28;20034;-57
2024/01/08 01:55:39;;;;;;;0.60;0.60;;;;;;;-4.22;100.00;102903.75;5096828;28;20099;-57
2024/01/08 01:58:06;;;;;;;0.50;0.50;;;;;;;-4.23;100.00;102901.97;5096105;28;20056;-56
2024/01/08 02:00:31;;;;;;;0.60;0.60;;;;;;;-4.21;100.00;102900.53;5096063;28;20028;-57
2024/01/08 02:02:57;;;;;;;0.70;0.70;;;;;;;-4.19;100.00;102906.66;5096415;28;20081;-56
2024/01/08 02:05:22;;;;;;;0.70;0.70;;;;;;;-4.16;100.00;102904.50;5095757;28;20059;-57
2024/01/08 02:07:48;;;;;;;0.60;0.60;;;;;;;-4.13;100.00;102917.50;5096399;28;20017;-56
2024/01/08 02:10:13;;;;;;;0.70;0.70;;;;;;;-4.09;100.00;102914.63;5096184;28;20032;-57
2024/01/08 02:12:38;;;;;;;0.65;0.65;;;;;;;-4.08;100.00;102924.00;5095793;28;20024;-56
2024/01/08 02:15:04;;;;;;;0.60;0.60;;;;;;;-4.10;100.00;102907.78;5095854;28;20040;-56
2024/01/08 02:17:31;;;;;;;0.60;0.60;;;;;;;-4.17;100.00;102910.25;5096055;28;20032;-56
2024/01/08 02:19:56;;;;;;;0.60;0.60;;;;;;;-4.26;100.00;102910.06;5095712;28;20028;-56
2024/01/08 02:22:21;;;;;;;0.60;0.60;;;;;;;-4.33;100.00;102913.41;5095708;28;20027;-56
2024/01/08 02:24:47;;;;;;;0.70;0.70;;;;;;;-4.38;100.00;102921.13;5096215;28;20372;-56
2024/01/08 02:27:13;;;;;;;0.50;0.50;;;;;;;-4.44;100.00;102925.41;5095306;28;20490;-56
2024/01/08 02:29:39;;;;;;;0.60;0.60;;;;;;;-4.49;100.00;102918.19;5095684;28;20068;-56
2024/01/08 02:32:06;;;;;;;0.60;0.60;;;;;;;-4.53;100.00;102915.09;5096018;28;20491;-59
2024/01/08 02:34:31;;;;;;;0.60;0.60;;;;;;;-4.55;100.00;102919.03;5094775;28;20040;-56
2024/01/08 02:36:57;;;;;;;0.65;0.65;;;;;;;-4.63;100.00;102911.44;5096003;28;20027;-57
2024/01/08 02:39:22;;;;;;;0.70;0.70;;;;;;;-4.64;100.00;102916.28;5094884;28;20103;-56
2024/01/08 02:41:47;;;;;;;0.70;0.70;;;;;;;-4.64;100.00;102918.81;5095631;28;20047;-57
2024/01/08 02:44:12;;;;;;;0.60;0.60;;;;;;;-4.67;100.00;102926.88;5095196;28;20055;-56
2024/01/08 02:46:38;;;;;;;0.70;0.70;;;;;;;-4.69;100.00;102917.31;5095159;28;20035;-56
2024/01/08 02:49:03;;;;;;;0.52;0.52;;;;;;;-4.70;100.00;102925.59;5094388;28;20503;-56
2024/01/08 02:51:28;;;;;;;0.60;0.60;;;;;;;-4.75;100.00;102932.56;5095374;28;20158;-56
2024/01/08 02:53:53;;;;;;;0.55;0.55;;;;;;;-4.68;100.00;102939.25;5094948;28;20418;-56
2024/01/08 02:56:19;;;;;;;0.55;0.55;;;;;;;-4.79;100.00;102930.34;5094950;28;20031;-56
2024/01/08 02:58:48;;;;;;;0.60;0.60;;;;;;;-4.80;100.00;102928.59;5095357;28;20483;-56
2024/01/08 03:01:14;;;;;;;0.70;0.70;;;;;;;-4.80;100.00;102918.53;5094719;28;20099;-56
2024/01/08 03:03:39;;;;;;;0.60;0.60;;;;;;;-4.80;100.00;102928.59;5095219;28;20116;-56
2024/01/08 03:06:05;;;;;;;0.60;0.60;;;;;;;-4.80;100.00;102933.63;5094280;28;20024;-56
2024/01/08 03:08:30;;;;;;;0.70;0.70;;;;;;;-4.71;100.00;102934.75;5094503;28;20028;-56
2024/01/08 03:10:55;;;;;;;0.60;0.60;;;;;;;-4.80;100.00;102936.13;5095011;28;20064;-56
2024/01/08 03:13:21;;;;;;;0.50;0.50;;;;;;;-4.71;100.00;102929.72;5094761;28;20031;-56
2024/01/08 03:15:46;;;;;;;0.70;0.70;;;;;;;-4.80;100.00;102931.09;5094343;28;20016;-56
2024/01/08 03:18:12;;;;;;;0.60;0.60;;;;;;;-4.70;100.00;102936.56;5094554;28;20054;-56
2024/01/08 03:20:38;;;;;;;0.60;0.60;;;;;;;-4.77;100.00;102923.91;5094913;28;20039;-56
2024/01/08 03:23:03;;;;;;;0.70;0.70;;;;;;;-4.77;100.00;102923.91;5094411;28;20016;-56
2024/01/08 03:25:29;;;;;;;0.60;0.60;;;;;;;-4.78;100.00;102927.16;5094436;28;20050;-56
2024/01/08 03:27:54;;;;;;;0.60;0.60;;;;;;;-4.68;100.00;102924.16;5094866;28;20534;-56
2024/01/08 03:30:19;;;;;;;0.70;0.70;;;;;;;-4.74;100.00;102931.84;5093798;28;20028;-56
2024/01/08 03:32:45;;;;;;;0.70;0.70;;;;;;;-4.71;100.00;102933.84;5094605;28;20040;-56
2024/01/08 03:35:10;;;;;;;0.60;0.60;;;;;;;-4.72;100.00;102934.56;5094021;28;20055;-57
2024/01/08 03:37:36;;;;;;;0.70;0.70;;;;;;;-4.72;100.00;102929.53;5093988;28;20032;-56
2024/01/08 03:40:03;;;;;;;0.68;0.68;;;;;;;-4.72;100.00;102934.56;5094634;28;20028;-56
2024/01/08 03:42:28;;;;;;;0.60;0.60;;;;;;;-4.73;100.00;102936.16;5093016;28;20545;-56
2024/01/08 03:44:53;;;;;;;0.60;0.60;;;;;;;-4.62;100.00;102937.53;5093002;28;20024;-56
2024/01/08 03:47:19;;;;;;;0.60;0.60;;;;;;;-4.67;100.00;102939.44;5091802;28;20032;-56
2024/01/08 03:49:44;;;;;;;0.60;0.60;;;;;;;-4.66;100.00;102931.19;5093025;28;20042;-56
2024/01/08 03:52:11;;;;;;;0.60;0.60;;;;;;;-4.65;100.00;102940.56;5093985;28;20540;-56
2024/01/08 03:54:37;;;;;;;0.55;0.55;;;;;;;-4.60;100.00;102935.19;5094375;28;20107;-56
2024/01/08 03:57:02;;;;;;;0.68;0.68;;;;;;;-4.60;100.00;102933.56;5093062;28;20107;-57
2024/01/08 03:59:28;;;;;;;0.60;0.60;;;;;;;-4.57;100.00;102941.50;5093684;28;20024;-57
2024/01/08 04:01:53;;;;;;;0.70;0.70;;;;;;;-4.48;100.00;102946.75;5094324;28;20020;-57
2024/01/08 04:04:19;;;;;;;0.60;0.60;;;;;;;-4.52;100.00;102939.53;5093452;28;20032;-57
2024/01/08 04:06:45;;;;;;;0.60;0.60;;;;;;;-4.50;100.00;102935.63;5093997;28;20154;-57
2024/01/08 04:09:12;;;;;;;0.63;0.63;;;;;;;-4.50;100.00;102936.50;5093871;28;20036;-57
2024/01/08 04:11:37;;;;;;;0.60;0.60;;;;;;;-4.48;100.00;102939.22;5093064;28;20470;-57
2024/01/08 04:14:03;;;;;;;0.50;0.50;;;;;;;-4.46;100.00;102937.78;5093716;28;20063;-57
2024/01/08 04:16:28;;;;;;;0.60;0.60;;;;;;;-4.37;100.00;102941.44;5093690;28;20375;-57
2024/01/08 04:18:53;;;;;;;0.60;0.60;;;;;;;-4.40;100.00;102931.00;5093428;28;20028;-57
2024/01/08 04:21:19;;;;;;;0.60;0.60;;;;;;;-4.39;100.00;102937.84;5093391;28;20066;-57
2024/01/08 04:23:44;;;;;;;0.65;0.65;;;;;;;-4.39;100.00;102935.34;5093880;28;20028;-57
2024/01/08 04:26:16;;;;;;;0.60;0.60;;;;;;;-4.38;100.00;102937.13;5092292;28;20359;-57
2024/01/08 04:28:42;;;;;;;0.60;0.60;;;;;;;-4.38;100.00;102932.06;5093738;28;20024;-57
2024/01/08 04:31:07;;;;;;;0.60;0.60;;;;;;;-4.26;100.00;102936.81;5093887;28;20028;-57
2024/01/08 04:33:33;;;;;;;0.60;0.60;;;;;;;-4.34;100.00;102931.78;5092756;28;20020;-57
2024/01/08 04:35:58;;;;;;;0.70;0.70;;;;;;;-4.31;100.00;102936.28;5073260;28;20063;-57
2024/01/08 04:38:23;;;;;;;0.50;0.50;;;;;;;-4.32;100.00;102935.34;5072946;28;20024;-57
2024/01/08 04:40:48;;;;;;;0.70;0.70;;;;;;;-4.29;100.00;102937.34;5072488;28;20384;-57
2024/01/08 04:43:14;;;;;;;0.60;0.60;;;;;;;-4.29;100.00;102932.31;5072516;28;20064;-57
2024/01/08 04:45:39;;;;;;;0.70;0.70;;;;;;;-4.28;100.00;102929.09;5073357;28;20025;-57
2024/01/08 04:48:05;;;;;;;0.60;0.60;;;;;;;-4.27;100.00;102929.97;5072557;28;20024;-57
2024/01/08 04:50:30;;;;;;;0.70;0.70;;;;;;;-4.26;100.00;102931.78;5072911;28;20055;-57
2024/01/08 04:52:55;;;;;;;0.60;0.60;;;;;;;-4.17;100.00;102933.84;5072654;28;20070;-57
2024/01/08 04:55:21;;;;;;;0.70;0.70;;;;;;;-4.22;100.00;102932.38;5072700;28;20025;-57
2024/01/08 04:57:49;;;;;;;0.60;0.60;;;;;;;-4.13;100.00;102945.19;5072941;28;20021;-57
2024/01/08 05:00:14;;;;;;;0.70;0.70;;;;;;;-4.18;100.00;102938.69;5072214;28;20021;-57
2024/01/08 05:02:40;;;;;;;0.60;0.60;;;;;;;-4.20;100.00;102942.63;5072688;28;20047;-57
2024/01/08 05:05:06;;;;;;;0.60;0.60;;;;;;;-4.19;100.00;102941.91;5072996;28;20027;-57
2024/01/08 05:07:32;;;;;;;0.60;0.60;;;;;;;-4.19;100.00;102941.91;5071422;28;20036;-57
2024/01/08 05:09:57;;;;;;;0.60;0.60;;;;;;;-4.17;100.00;102936.34;5072524;28;20028;-57
2024/01/08 05:12:22;;;;;;;0.70;0.70;;;;;;;-4.17;100.00;102932.91;5072437;28;20790;-57
2024/01/08 05:14:47;;;;;;;0.60;0.60;;;;;;;-4.17;100.00;102928.78;5072272;28;20150;-57
2024/01/08 05:17:13;;;;;;;0.63;0.63;;;;;;;-4.16;100.00;102937.25;5072361;28;20024;-57
2024/01/08 05:19:38;;;;;;;0.63;0.63;;;;;;;-4.05;100.00;102938.56;5073071;28;20110;-57
2024/01/08 05:22:03;;;;;;;0.65;0.65;;;;;;;-4.06;100.00;102940.16;5072359;28;20020;-57
2024/01/08 05:24:29;;;;;;;0.65;0.65;;;;;;;-4.14;100.00;102933.31;5072252;28;20033;-56
2024/01/08 05:26:54;;;;;;;0.63;0.63;;;;;;;-4.16;100.00;102934.72;5072735;28;20075;-56
2024/01/08 05:29:20;;;;;;;0.60;0.60;;;;;;;-4.15;100.00;102928.97;5072011;28;20021;-56
2024/01/08 05:31:45;;;;;;;0.60;0.60;;;;;;;-4.16;100.00;102924.66;5072477;28;20366;-56
2024/01/08 05:34:10;;;;;;;0.70;0.70;;;;;;;-4.15;100.00;102936.53;5077298;28;20097;-56
2024/01/08 05:36:39;;;;;;;0.70;0.70;;;;;;;-4.07;100.00;102930.81;5092283;28;20020;-56
2024/01/08 05:39:04;;;;;;;0.60;0.60;;;;;;;-4.13;100.00;102936.00;5092509;28;20054;-56
2024/01/08 05:41:30;;;;;;;0.60;0.60;;;;;;;-4.12;100.00;102926.81;5092561;28;20428;-56
2024/01/08 05:43:55;;;;;;;0.68;0.68;;;;;;;-4.11;100.00;102927.75;5092196;28;20032;-56
2024/01/08 05:46:20;;;;;;;0.60;0.60;;;;;;;-4.11;100.00;102936.19;5092660;28;20430;-56
2024/01/08 05:48:46;;;;;;;0.60;0.60;;;;;;;-4.10;100.00;102932.97;5092854;28;20028;-56
2024/01/08 05:51:11;;;;;;;0.60;0.60;;;;;;;-4.11;100.00;102923.59;5091671;28;20456;-56
2024/01/08 05:53:36;;;;;;;0.55;0.55;;;;;;;-4.01;100.00;102924.00;5092688;28;20054;-56
2024/01/08 05:56:02;;;;;;;0.70;0.70;;;;;;;-4.06;100.00;102932.63;5092629;28;20031;-56
2024/01/08 05:58:28;;;;;;;0.60;0.60;;;;;;;-4.05;100.00;102929.38;5091717;28;20032;-56
2024/01/08 06:00:53;;;;;;;0.50;0.50;;;;;;;-4.03;100.00;102924.53;5092794;28;20082;-56
2024/01/08 06:03:20;;;;;;;0.50;0.50;;;;;;;-4.04;100.00;102932.78;5091809;28;20103;-56
2024/01/08 06:05:45;;;;;;;0.60;0.60;;;;;;;-4.03;100.00;102925.44;5092292;28;20028;-56
2024/01/08 06:08:10;;;;;;;0.60;0.60;;;;;;;-4.01;100.00;102925.63;5092216;28;20375;-56
2024/01/08 06:10:36;;;;;;;0.60;0.60;;;;;;;-3.99;100.00;102929.22;5092018;28;20024;-56
2024/01/08 06:13:01;;;;;;;0.60;0.60;;;;;;;-3.98;100.00;102929.44;5092208;28;20105;-56
2024/01/08 06:15:27;;;;;;;0.70;0.70;;;;;;;-3.98;100.00;102921.88;5092304;28;20039;-56
2024/01/08 06:17:52;;;;;;;0.60;0.60;;;;;;;-3.96;100.00;102924.56;5091807;28;20068;-56
2024/01/08 06:20:17;;;;;;;0.60;0.60;;;;;;;-3.95;100.00;102921.34;5094500;28;20036;-56
2024/01/08 06:22:42;;;;;;;0.70;0.70;;;;;;;-3.94;100.00;102924.75;5096047;28;20073;-56
2024/01/08 06:25:08;;;;;;;0.70;0.70;;;;;;;-3.93;100.00;102929.09;5095490;28;20024;-56
2024/01/08 06:27:33;;;;;;;0.60;0.60;;;;;;;-3.93;100.00;102921.53;5095738;28;20024;-56
2024/01/08 06:29:59;;;;;;;0.60;0.60;;;;;;;-3.92;100.00;102930.88;5096053;28;20472;-56
2024/01/08 06:32:24;;;;;;;0.52;0.52;;;;;;;-3.91;100.00;102927.63;5095026;28;20024;-56
2024/01/08 06:34:50;;;;;;;0.60;0.60;;;;;;;-3.89;100.00;102922.06;5095486;28;20510;-56
2024/01/08 06:37:15;;;;;;;0.70;0.70;;;;;;;-3.88;100.00;102925.50;5095620;28;20064;-56
2024/01/08 06:39:40;;;;;;;0.60;0.60;;;;;;;-3.87;100.00;102918.13;5095327;28;20084;-56
2024/01/08 06:42:06;;;;;;;0.60;0.60;;;;;;;-3.86;100.00;102919.00;5095509;28;20032;-56
2024/01/08 06:44:31;;;;;;;0.68;0.68;;;;;;;-3.85;100.00;102915.78;5095619;28;20039;-56
2024/01/08 06:46:56;;;;;;;0.70;0.70;;;;;;;-3.84;100.00;102915.06;5095145;28;20097;-56
2024/01/08 06:49:21;;;;;;;0.60;0.60;;;;;;;-3.82;100.00;102918.69;5095313;28;20036;-56
2024/01/08 06:51:47;;;;;;;0.50;0.50;;;;;;;-3.80;100.00;102917.25;5095702;28;20028;-56
2024/01/08 06:54:13;;;;;;;0.60;0.60;;;;;;;-3.80;100.00;102917.25;5094426;28;20446;-56
2024/01/08 06:56:38;;;;;;;0.60;0.60;;;;;;;-3.77;100.00;102920.16;5095354;28;20456;-56
2024/01/08 06:59:04;;;;;;;0.70;0.70;;;;;;;-3.74;100.00;102922.13;5095629;28;20024;-56
2024/01/08 07:01:30;;;;;;;0.68;0.68;;;;;;;-3.73;100.00;102919.78;5093722;28;20119;-56
2024/01/08 07:03:56;;;;;;;0.63;0.63;;;;;;;-3.71;100.00;102922.50;5095162;28;20077;-56
2024/01/08 07:06:21;;;;;;;0.50;0.50;;;;;;;-3.69;100.00;102921.06;5094914;28;20028;-56
2024/01/08 07:08:46;;;;;;;0.70;0.70;;;;;;;-3.68;100.00;102927.88;5094458;28;20020;-56
2024/01/08 07:11:19;;;;;;;0.70;0.70;;;;;;;-3.66;100.00;102929.00;5095073;28;20024;-56
2024/01/08 07:13:45;;;;;;;0.60;0.60;;;;;;;-3.66;100.00;102927.34;5094585;28;20020;-56
2024/01/08 07:16:10;;;;;;;0.60;0.60;;;;;;;-3.64;100.00;102941.06;5094878;28;20375;-56
2024/01/08 07:18:36;;;;;;;0.60;0.60;;;;;;;-3.61;100.00;102937.13;5095168;28;20028;-56
2024/01/08 07:21:01;;;;;;;0.70;0.70;;;;;;;-3.60;100.00;102946.44;5094638;28;20391;-56
2024/01/08 07:23:26;;;;;;;0.68;0.68;;;;;;;-3.58;100.00;102945.03;5094453;28;20020;-56
2024/01/08 07:25:52;;;;;;;0.70;0.70;;;;;;;-3.49;100.00;102946.13;5095155;28;20539;-56
2024/01/08 07:28:18;;;;;;;0.60;0.60;;;;;;;-3.54;100.00;102947.19;5094000;28;20020;-56
2024/01/08 07:30:43;;;;;;;0.57;0.57;;;;;;;-3.52;100.00;102945.78;5093616;28;20020;-56
2024/01/08 07:33:09;;;;;;;0.60;0.60;;;;;;;-3.50;100.00;102949.38;5094742;28;20054;-57
2024/01/08 07:35:34;;;;;;;0.50;0.50;;;;;;;-3.49;100.00;102956.22;5093920;28;20044;-57
2024/01/08 07:37:59;;;;;;;0.70;0.70;;;;;;;-3.44;100.00;102954.25;5094253;28;20077;-57
2024/01/08 07:40:25;;;;;;;0.68;0.68;;;;;;;-3.43;100.00;102956.97;5094524;28;20020;-57
2024/01/08 07:42:55;;;;;;;0.70;0.70;;;;;;;-3.40;100.00;102961.47;5094310;28;20119;-57
2024/01/08 07:45:26;;;;;;;0.60;0.60;;;;;;;-3.40;100.00;102964.88;5094176;28;20028;-57
2024/01/08 07:47:52;;;;;;;0.60;0.60;;;;;;;-3.38;100.00;102963.44;5094511;28;20070;-57
2024/01/08 07:50:19;;;;;;;0.50;0.50;;;;;;;-3.36;100.00;102969.56;5093494;28;20028;-57
2024/01/08 07:52:45;;;;;;;0.60;0.60;;;;;;;-3.34;100.00;102965.63;5094103;28;20077;-57
2024/01/08 07:55:10;;;;;;;0.50;0.50;;;;;;;-3.32;100.00;102965.78;5094208;28;20278;-57
2024/01/08 07:57:36;;;;;;;0.70;0.70;;;;;;;-3.33;100.00;102964.91;5093583;28;20039;-57
2024/01/08 08:00:06;;;;;;;0.70;0.70;;;;;;;-3.34;100.00;102963.09;5094449;28;20024;-57
2024/01/08 08:02:32;;;;;;;0.70;0.70;;;;;;;-3.32;100.00;102960.75;5093903;28;20015;-57
2024/01/08 08:04:58;;;;;;;0.45;0.45;;;;;;;-3.31;100.00;102962.56;5093256;28;20024;-57
2024/01/08 08:07:23;;;;;;;0.60;0.60;;;;;;;-3.29;100.00;102956.09;5093644;28;20519;-57
2024/01/08 08:09:48;;;;;;;0.50;0.50;;;;;;;-3.26;100.00;102969.06;5093685;28;20052;-57
2024/01/08 08:12:13;;;;;;;0.70;0.70;;;;;;;-3.25;100.00;102967.41;5093658;28;20357;-57
2024/01/08 08:14:39;;;;;;;0.60;0.60;;;;;;;-3.22;100.00;102967.81;5094118;28;20103;-57
2024/01/08 08:17:04;;;;;;;0.50;0.50;;;;;;;-3.21;100.00;102959.53;5093537;28;20028;-57
2024/01/08 08:19:29;;;;;;;0.60;0.60;;;;;;;-3.18;100.00;102964.94;5092926;28;20072;-58
2024/01/08 08:21:56;;;;;;;0.60;0.60;;;;;;;-3.18;100.00;102973.38;5093543;28;20073;-57
2024/01/08 08:24:21;;;;;;;0.50;0.50;;;;;;;-3.17;100.00;102967.63;5092902;28;20360;-57
2024/01/08 08:26:48;;;;;;;0.60;0.60;;;;;;;-3.15;100.00;102971.25;5093326;28;20027;-57
2024/01/08 08:29:14;;;;;;;0.60;0.60;;;;;;;-3.13;100.00;102981.50;5093659;28;20028;-57
2024/01/08 08:31:39;;;;;;;0.68;0.68;;;;;;;-3.14;100.00;102972.13;5093245;28;20042;-57
2024/01/08 08:34:05;;;;;;;0.70;0.70;;;;;;;-3.12;100.00;102965.66;5093395;28;20055;-57
2024/01/08 08:36:30;;;;;;;0.68;0.68;;;;;;;-3.10;100.00;102979.34;5093137;28;20043;-57
2024/01/08 08:38:56;;;;;;;0.60;0.60;;;;;;;-3.08;100.00;102977.91;5093129;28;20380;-57
2024/01/08 08:41:21;;;;;;;0.52;0.52;;;;;;;-3.08;100.00;102982.97;5093161;28;20020;-57
2024/01/08 08:43:47;;;;;;;0.70;0.70;;;;;;;-3.08;100.00;102977.91;5093302;28;20077;-57
2024/01/08 08:46:12;;;;;;;0.60;0.60;;;;;;;-3.08;100.00;102982.97;5092700;28;20100;-57
2024/01/08 08:48:38;;;;;;;0.60;0.60;;;;;;;-3.06;100.00;102991.63;5093263;28;20020;-57
2024/01/08 08:51:05;;;;;;;0.57;0.57;;;;;;;-3.04;100.00;102985.13;5093304;28;20046;-57
2024/01/08 08:53:30;;;;;;;0.60;0.60;;;;;;;-3.01;100.00;102990.56;5092495;28;20024;-57
2024/01/08 08:55:55;;;;;;;0.50;0.50;;;;;;;-3.01;100.00;102979.53;5093135;28;20024;-57
2024/01/08 08:58:23;;;;;;;0.60;0.60;;;;;;;-3.01;100.00;102980.47;5092962;28;20111;-57
2024/01/08 09:00:48;;;;;;;;;;;;;;;-2.89;100.00;102995.22;5093064;28;20031;-57
2024/01/08 09:03:14;;;;;;;0.70;0.70;;;;;;;-2.97;100.00;102989.25;5092911;28;19912;-57
2024/01/08 09:05:39;;;;;;;0.75;0.75;;;;;;;-3.00;100.00;102982.22;5093069;28;20020;-58
2024/01/08 09:08:05;;;;;;;0.60;0.60;;;;;;;-3.00;100.00;102991.44;5092258;28;20028;-57
2024/01/08 09:10:30;;;;;;;0.63;0.63;;;;;;;-3.00;100.00;102991.44;5092953;28;20493;-57
2024/01/08 09:12:56;;;;;;;0.60;0.60;;;;;;;-2.99;100.00;102981.53;5093173;28;20020;-57
2024/01/08 09:15:21;;;;;;;0.60;0.60;;;;;;;-2.98;100.00;102995.94;5092094;28;20024;-58
2024/01/08 09:17:46;;;;;;;0.60;0.60;;;;;;;-2.98;100.00;102995.06;5092905;28;20035;-57
2024/01/08 09:20:11;;;;;;;0.60;0.60;;;;;;;-2.99;100.00;102999.19;5092051;28;20494;-57
2024/01/08 09:22:37;;;;;;;0.60;0.60;;;;;;;-3.01;100.00;102998.13;5093038;28;20030;-58
2024/01/08 09:25:04;;;;;;;0.60;0.60;;;;;;;-3.04;100.00;103000.25;5093020;28;20115;-58
2024/01/08 09:27:30;;;;;;;0.70;0.70;;;;;;;-3.01;100.00;103002.25;5092286;28;20039;-58
2024/01/08 09:29:57;;;;;;;0.60;0.60;;;;;;;-3.04;100.00;103004.41;5092636;28;20051;-58
2024/01/08 09:32:22;;;;;;;0.60;0.60;;;;;;;-3.05;100.00;103008.53;5092550;28;20024;-57
2024/01/08 09:34:47;;;;;;;0.60;0.60;;;;;;;-3.05;100.00;103005.13;5092019;28;20523;-57
2024/01/08 09:37:13;;;;;;;0.60;0.60;;;;;;;-3.09;100.00;103019.00;5092352;28;20055;-58
2024/01/08 09:39:39;;;;;;;0.55;0.55;;;;;;;-3.15;100.00;103014.13;5092594;28;20028;-58
2024/01/08 09:42:05;;;;;;;0.60;0.60;;;;;;;-3.20;100.00;103016.78;5091991;28;20115;-58
2024/01/08 09:44:32;;;;;;;0.60;0.60;;;;;;;-3.10;100.00;103024.75;5091811;28;20158;-58
2024/01/08 09:46:59;;;;;;;0.60;0.60;;;;;;;-3.21;100.00;103020.06;5092852;28;20036;-57
2024/01/08 09:49:26;;;;;;;0.50;0.50;;;;;;;-3.18;100.00;103020.41;5089443;28;20077;-58
2024/01/08 09:51:52;;;;;;;0.60;0.60;;;;;;;-3.16;100.00;103019.00;5091114;28;20039;-57
2024/01/08 09:54:20;;;;;;;0.60;0.60;;;;;;;-3.06;100.00;103021.91;5092667;28;20391;-57
2024/01/08 09:56:50;;;;;;;0.60;0.60;;;;;;;-2.99;100.00;103016.84;5094655;28;20426;-57
2024/01/08 09:59:18;;;;;;;0.52;0.52;;;;;;;-2.89;100.00;103015.41;5096182;28;20034;-57
2024/01/08 10:01:43;;;;;;;0.52;0.52;;;;;;;-2.79;100.00;103023.34;5096506;28;20114;-58
2024/01/08 10:04:09;;;;;;;0.60;0.60;;;;;;;-2.86;100.00;103025.88;5096013;28;20106;-58
2024/01/08 10:06:34;;;;;;;0.60;0.60;;;;;;;-2.83;100.00;103021.19;5096370;28;20023;-57
2024/01/08 10:09:00;;;;;;;0.60;0.60;;;;;;;-2.82;100.00;103018.84;5096679;28;20042;-58
2024/01/08 10:11:26;;;;;;;0.60;0.60;;;;;;;-2.73;100.00;103024.09;5095397;28;20030;-57
2024/01/08 10:13:52;;;;;;;0.50;0.50;;;;;;;-2.67;100.00;103028.97;5096398;28;20028;-58
2024/01/08 10:16:17;;;;;;;0.60;0.60;;;;;;;-2.67;100.00;103019.75;5095897;28;20031;-58
2024/01/08 10:18:46;;;;;;;0.60;0.60;;;;;;;-2.55;100.00;103021.94;5095284;28;20474;-58
2024/01/08 10:21:13;;;;;;;0.50;0.50;;;;;;;-2.69;100.00;103023.72;5095795;28;20054;-58
2024/01/08 10:23:39;;;;;;;0.50;0.50;;;;;;;-2.67;100.00;103021.41;5095753;28;20024;-58
2024/01/08 10:26:04;;;;;;;0.70;0.70;;;;;;;-2.64;100.00;103016.69;5095876;28;20289;-58
2024/01/08 10:28:37;;;;;;;0.50;0.50;;;;;;;-2.64;100.00;103019.22;5095848;28;20032;-58
2024/01/08 10:31:04;;;;;;;0.50;0.50;;;;;;;-2.68;100.00;103019.59;5095407;28;20024;-58
2024/01/08 10:33:29;;;;;;;0.60;0.60;;;;;;;-2.67;100.00;103007.16;5095662;28;20059;-57
2024/01/08 10:35:56;;;;;;;0.60;0.60;;;;;;;-2.79;100.00;103013.25;5095750;28;20077;-57
2024/01/08 10:38:21;;;;;;;0.60;0.60;;;;;;;-2.71;100.00;103010.03;5095034;28;20031;-58
2024/01/08 10:40:47;;;;;;;0.63;0.63;;;;;;;-2.95;100.00;102999.56;5095721;28;20020;-57
2024/01/08 10:43:12;;;;;;;0.57;0.57;;;;;;;-2.82;100.00;103007.84;5095570;28;20035;-58
2024/01/08 10:45:38;;;;;;;0.57;0.57;;;;;;;-2.68;100.00;103005.34;5094992;28;20025;-58
2024/01/08 10:48:15;;;;;;;0.60;0.60;;;;;;;-2.54;100.00;103001.91;5095886;28;20055;-58
2024/01/08 10:50:45;;;;;;;0.63;0.63;;;;;;;-2.54;100.00;102990.94;5095848;28;20035;-58
2024/01/08 10:53:21;;;;;;;0.60;0.60;;;;;;;-2.46;100.00;102994.34;5094818;28;20027;-58
2024/01/08 10:55:48;;;;;;;0.60;0.60;;;;;;;-2.36;100.00;102992.16;5095734;28;20104;-58
2024/01/08 10:58:24;;;;;;;0.60;0.60;;;;;;;-2.32;100.00;102986.75;5095063;28;20035;-58
2024/01/08 11:00:50;;;;;;;0.60;0.60;;;;;;;-2.30;100.00;102986.91;5094866;28;20028;-58
2024/01/08 11:03:16;;;;;;;0.57;0.57;;;;;;;-2.28;100.00;102988.00;5095184;28;20044;-58
2024/01/08 11:05:50;;;;;;;0.50;0.50;;;;;;;-2.29;100.00;102988.72;5094801;28;20109;-58
2024/01/08 11:08:20;;;;;;;0.60;0.60;;;;;;;-2.31;100.00;102986.03;5094973;28;20024;-58
2024/01/08 11:10:49;;;;;;;0.52;0.52;;;;;;;-2.30;100.00;102979.34;5095174;28;20038;-58